createdAt,value
2023-04-23T00:00:19.265Z,1.60
2023-04-23T00:02:49.977Z,1.55
2023-04-23T00:05:16.827Z,1.85
2023-04-23T00:07:43.382Z,1.60
2023-04-23T00:10:10.180Z,1.75
2023-04-23T00:12:36.724Z,1.70
2023-04-23T00:15:04.134Z,1.65
2023-04-23T00:17:31.593Z,1.20
2023-04-23T00:19:58.042Z,1.65
2023-04-23T00:22:24.436Z,1.50
2023-04-23T00:24:51.033Z,1.70
2023-04-23T00:27:18.347Z,1.70
2023-04-23T00:29:46.338Z,1.52
2023-04-23T00:32:14.535Z,1.80
2023-04-23T00:34:41.301Z,1.48
2023-04-23T00:37:08.063Z,1.67
2023-04-23T00:39:35.289Z,2.05
2023-04-23T00:42:07.075Z,1.60
2023-04-23T00:44:33.536Z,1.35
2023-04-23T00:47:06.091Z,1.60
2023-04-23T00:49:33.147Z,1.80
2023-04-23T00:52:00.788Z,1.55
2023-04-23T00:54:27.541Z,1.42
2023-04-23T00:56:54.664Z,1.88
2023-04-23T00:59:21.289Z,1.75
2023-04-23T01:01:48.038Z,1.77
2023-04-23T01:04:21.434Z,1.73
2023-04-23T01:06:48.113Z,1.58
2023-04-23T01:09:15.413Z,1.60
2023-04-23T01:11:42.944Z,1.77
2023-04-23T01:14:09.855Z,1.55
2023-04-23T01:16:38.405Z,1.50
2023-04-23T01:19:06.835Z,2.25
2023-04-23T01:21:34.506Z,2.50
2023-04-23T01:24:01.419Z,2.10
2023-04-23T01:26:27.829Z,1.80
2023-04-23T01:28:54.240Z,1.80
2023-04-23T01:31:21.179Z,1.77
2023-04-23T01:33:47.738Z,1.80
2023-04-23T01:36:14.186Z,1.80
2023-04-23T01:38:43.668Z,1.85
2023-04-23T01:41:10.487Z,1.70
2023-04-23T01:43:37.294Z,2.15
2023-04-23T01:46:03.863Z,2.85
2023-04-23T01:48:30.472Z,1.88
2023-04-23T01:50:56.942Z,1.88
2023-04-23T01:53:23.347Z,1.90
2023-04-23T01:55:52.341Z,1.40
2023-04-23T01:58:19.536Z,1.88
2023-04-23T02:00:46.105Z,1.80
2023-04-23T02:03:12.875Z,1.92
2023-04-23T02:05:40.719Z,2.13
2023-04-23T02:08:07.419Z,2.00
2023-04-23T02:10:33.935Z,2.30
2023-04-23T02:13:03.234Z,1.75
2023-04-23T02:15:29.954Z,1.80
2023-04-23T02:17:56.558Z,1.55
2023-04-23T02:20:23.024Z,1.73
2023-04-23T02:22:50.563Z,1.40
2023-04-23T02:25:18.156Z,1.80
2023-04-23T02:27:44.990Z,1.73
2023-04-23T02:30:11.583Z,1.70
2023-04-23T02:32:38.771Z,1.63
2023-04-23T02:35:06.584Z,1.73
2023-04-23T02:37:33.544Z,1.85
2023-04-23T02:39:59.966Z,1.65
2023-04-23T02:42:26.373Z,1.95
2023-04-23T02:44:52.925Z,1.85
2023-04-23T02:47:19.354Z,1.52
2023-04-23T02:49:45.829Z,1.75
2023-04-23T02:52:12.255Z,1.50
2023-04-23T02:54:39.008Z,1.52
2023-04-23T02:57:06.149Z,1.70
2023-04-23T02:59:32.627Z,1.60
2023-04-23T03:01:59.229Z,1.88
2023-04-23T03:04:25.944Z,1.92
2023-04-23T03:06:52.446Z,2.10
2023-04-23T03:09:18.915Z,1.80
2023-04-23T03:11:45.321Z,1.77
2023-04-23T03:14:11.710Z,1.75
2023-04-23T03:16:38.127Z,1.90
2023-04-23T03:19:04.601Z,1.60
2023-04-23T03:21:31.405Z,1.60
2023-04-23T03:23:57.854Z,1.70
2023-04-23T03:26:24.304Z,1.70
2023-04-23T03:28:50.719Z,1.73
2023-04-23T03:31:17.359Z,1.67
2023-04-23T03:33:43.853Z,1.95
2023-04-23T03:36:13.276Z,1.50
2023-04-23T03:38:39.707Z,1.60
2023-04-23T03:41:06.108Z,1.63
2023-04-23T03:43:32.513Z,1.60
2023-04-23T03:45:58.974Z,1.75
2023-04-23T03:48:25.418Z,1.67
2023-04-23T03:50:51.845Z,1.65
2023-04-23T03:53:18.226Z,1.80
2023-04-23T03:55:44.761Z,1.77
2023-04-23T03:58:11.156Z,1.70
2023-04-23T04:00:37.622Z,1.83
2023-04-23T04:03:04.471Z,2.25
2023-04-23T04:05:31.245Z,1.70
2023-04-23T04:07:57.662Z,1.90
2023-04-23T04:10:24.035Z,1.92
2023-04-23T04:12:50.456Z,2.30
2023-04-23T04:15:17.619Z,1.65
2023-04-23T04:17:47.104Z,1.70
2023-04-23T04:20:13.538Z,1.90
2023-04-23T04:22:39.946Z,1.70
2023-04-23T04:25:06.983Z,1.80
2023-04-23T04:27:34.594Z,1.80
2023-04-23T04:30:05.660Z,1.73
2023-04-23T04:34:58.422Z,2.22
2023-04-23T04:37:24.848Z,1.83
2023-04-23T04:39:51.308Z,2.35
2023-04-23T04:42:17.694Z,1.80
2023-04-23T04:44:44.341Z,1.67
2023-04-23T04:47:10.946Z,2.05
2023-04-23T04:49:38.273Z,1.95
2023-04-23T04:52:04.786Z,1.90
2023-04-23T04:54:31.149Z,2.00
2023-04-23T04:56:57.580Z,1.92
2023-04-23T04:59:24.011Z,2.00
2023-04-23T05:01:50.570Z,1.77
2023-04-23T05:04:17.306Z,2.10
2023-04-23T05:06:44.348Z,2.13
2023-04-23T05:09:11.223Z,2.03
2023-04-23T05:11:37.750Z,2.38
2023-04-23T05:14:04.583Z,1.92
2023-04-23T05:16:31.047Z,1.95
2023-04-23T05:18:57.470Z,2.53
2023-04-23T05:21:24.007Z,2.38
2023-04-23T05:23:50.501Z,2.38
2023-04-23T05:26:18.152Z,2.00
2023-04-23T05:28:44.579Z,1.90
2023-04-23T05:31:11.489Z,2.10
2023-04-23T05:33:49.312Z,2.03
2023-04-23T05:36:16.628Z,2.03
2023-04-23T05:38:43.070Z,2.38
2023-04-23T05:41:09.525Z,2.10
2023-04-23T05:43:35.947Z,1.98
2023-04-23T05:46:04.682Z,2.70
2023-04-23T05:48:31.155Z,2.60
2023-04-23T05:50:57.975Z,2.40
2023-04-23T05:53:24.402Z,2.60
2023-04-23T05:55:50.776Z,3.38
2023-04-23T05:58:19.115Z,2.45
2023-04-23T06:00:45.599Z,2.45
2023-04-23T06:03:12.164Z,2.25
2023-04-23T06:05:38.818Z,2.25
2023-04-23T06:08:05.334Z,2.53
2023-04-23T06:10:32.052Z,2.50
2023-04-23T06:12:58.423Z,3.10
2023-04-23T06:15:27.100Z,3.15
2023-04-23T06:17:54.521Z,2.88
2023-04-23T06:20:20.998Z,2.83
2023-04-23T06:22:47.436Z,2.55
2023-04-23T06:25:17.896Z,3.05
2023-04-23T06:27:44.383Z,3.05
2023-04-23T06:30:10.972Z,2.72
2023-04-23T06:32:37.403Z,3.30
2023-04-23T06:35:04.669Z,3.13
2023-04-23T06:37:31.860Z,3.13
2023-04-23T06:39:58.876Z,3.00
2023-04-23T06:42:26.966Z,3.65
2023-04-23T06:44:53.439Z,3.20
2023-04-23T06:47:19.997Z,3.20
2023-04-23T06:49:46.522Z,3.55
2023-04-23T06:52:13.036Z,3.25
2023-04-23T06:54:39.725Z,3.30
2023-04-23T06:57:06.500Z,2.92
2023-04-23T06:59:33.016Z,3.22
2023-04-23T07:01:59.462Z,3.55
2023-04-23T07:04:26.005Z,3.40
2023-04-23T07:06:52.528Z,4.10
2023-04-23T07:09:18.953Z,3.72
2023-04-23T07:11:45.532Z,3.25
2023-04-23T07:14:11.927Z,3.60
2023-04-23T07:16:38.384Z,3.50
2023-04-23T07:19:04.807Z,3.40
2023-04-23T07:21:32.992Z,3.80
2023-04-23T07:24:07.030Z,3.45
2023-04-23T07:26:34.169Z,3.45
2023-04-23T07:29:01.364Z,4.15
2023-04-23T07:31:28.612Z,3.60
2023-04-23T07:33:56.145Z,4.15
2023-04-23T07:36:22.646Z,4.05
2023-04-23T07:38:49.075Z,3.88
2023-04-23T07:41:15.575Z,4.25
2023-04-23T07:43:42.535Z,4.60
2023-04-23T07:46:09.284Z,4.50
2023-04-23T07:48:35.949Z,5.05
2023-04-23T07:51:02.591Z,5.88
2023-04-23T07:53:29.158Z,5.43
2023-04-23T07:55:56.559Z,5.43
2023-04-23T07:58:26.036Z,4.88
2023-04-23T08:00:52.591Z,5.55
2023-04-23T08:03:19.279Z,5.78
2023-04-23T08:05:45.985Z,5.65
2023-04-23T08:08:13.103Z,5.28
2023-04-23T08:10:39.960Z,6.05
2023-04-23T08:13:06.351Z,6.05
2023-04-23T08:15:34.877Z,6.50
2023-04-23T08:18:01.371Z,6.22
2023-04-23T08:20:27.856Z,6.45
2023-04-23T08:22:54.515Z,5.80
2023-04-23T08:25:21.206Z,6.15
2023-04-23T08:27:47.620Z,6.40
2023-04-23T08:30:14.252Z,6.25
2023-04-23T08:32:40.814Z,6.70
2023-04-23T08:35:08.291Z,6.15
2023-04-23T08:37:34.864Z,6.40
2023-04-23T08:40:01.534Z,6.20
2023-04-23T08:42:37.374Z,6.65
2023-04-23T08:45:04.369Z,7.18
2023-04-23T08:47:32.290Z,6.03
2023-04-23T08:49:59.354Z,6.88
2023-04-23T08:52:27.614Z,6.88
2023-04-23T08:54:55.150Z,6.80
2023-04-23T08:57:22.133Z,6.65
2023-04-23T08:59:48.726Z,6.60
2023-04-23T09:02:16.835Z,6.80
2023-04-23T09:04:44.740Z,6.63
2023-04-23T09:07:14.726Z,8.80
2023-04-23T09:09:41.549Z,7.07
2023-04-23T09:12:08.946Z,7.20
2023-04-23T09:14:35.704Z,7.47
2023-04-23T09:17:02.413Z,7.90
2023-04-23T09:19:28.916Z,7.22
2023-04-23T09:21:55.815Z,8.00
2023-04-23T09:24:22.888Z,7.93
2023-04-23T09:26:51.017Z,8.35
2023-04-23T09:29:19.259Z,8.68
2023-04-23T09:31:47.975Z,10.80
2023-04-23T09:34:23.036Z,11.50
2023-04-23T09:36:52.867Z,11.98
2023-04-23T09:39:21.651Z,15.35
2023-04-23T09:41:48.142Z,12.70
2023-04-23T09:44:17.665Z,14.35
2023-04-23T09:46:44.640Z,15.60
2023-04-23T09:49:12.016Z,15.73
2023-04-23T09:51:42.610Z,16.17
2023-04-23T09:54:22.656Z,18.80
2023-04-23T09:56:50.349Z,18.05
2023-04-23T09:59:32.020Z,18.00
2023-04-23T10:02:07.233Z,18.05
2023-04-23T10:04:34.346Z,19.20
2023-04-23T10:09:34.259Z,19.17
2023-04-23T10:12:02.383Z,19.40
2023-04-23T10:14:31.353Z,20.20
2023-04-23T10:16:59.213Z,21.08
2023-04-23T10:19:27.879Z,21.80
2023-04-23T10:22:12.080Z,24.40
2023-04-23T10:24:48.649Z,22.13
2023-04-23T10:29:56.010Z,23.20
2023-04-23T10:32:23.205Z,22.23
2023-04-23T10:34:50.743Z,23.80
2023-04-23T10:37:19.349Z,23.50
2023-04-23T10:39:47.532Z,22.77
2023-04-23T10:42:14.207Z,20.77
2023-04-23T10:44:56.618Z,21.20
2023-04-23T10:47:27.722Z,19.70
2023-04-23T10:49:54.218Z,18.20
2023-04-23T10:52:23.792Z,14.27
2023-04-23T10:54:59.903Z,11.57
2023-04-23T10:57:26.609Z,11.43
2023-04-23T10:59:54.644Z,11.90
2023-04-23T11:02:23.286Z,11.35
2023-04-23T11:04:57.331Z,10.85
2023-04-23T11:07:41.904Z,9.82
2023-04-23T11:10:12.238Z,9.60
2023-04-23T11:12:39.377Z,10.48
2023-04-23T11:15:15.445Z,8.07
2023-04-23T11:17:44.672Z,7.32
2023-04-23T11:20:14.054Z,6.28
2023-04-23T11:22:42.453Z,6.50
2023-04-23T11:25:12.981Z,7.13
2023-04-23T11:27:43.619Z,6.78
2023-04-23T11:30:13.945Z,6.55
2023-04-23T11:32:41.649Z,7.00
2023-04-23T11:35:09.896Z,6.28
2023-04-23T11:37:41.908Z,6.85
2023-04-23T11:40:10.260Z,7.07
2023-04-23T11:42:49.833Z,8.13
2023-04-23T11:45:20.423Z,7.32
2023-04-23T11:47:48.665Z,7.95
2023-04-23T11:50:19.001Z,8.35
2023-04-23T11:52:45.757Z,8.15
2023-04-23T11:55:13.084Z,7.60
2023-04-23T11:57:58.161Z,7.43
2023-04-23T12:00:26.462Z,7.55
2023-04-23T12:02:57.901Z,6.68
2023-04-23T12:05:28.476Z,6.80
2023-04-23T12:07:55.137Z,6.75
2023-04-23T12:10:21.924Z,5.85
2023-04-23T12:12:52.387Z,6.38
2023-04-23T12:15:19.129Z,6.28
2023-04-23T12:17:51.821Z,5.35
2023-04-23T12:20:19.411Z,5.78
2023-04-23T12:22:45.915Z,6.28
2023-04-23T12:25:12.398Z,5.80
2023-04-23T12:27:40.177Z,5.47
2023-04-23T12:30:07.732Z,6.57
2023-04-23T12:32:34.712Z,6.07
2023-04-23T12:35:01.248Z,6.28
2023-04-23T12:37:29.154Z,6.18
2023-04-23T12:39:58.257Z,5.72
2023-04-23T12:42:25.001Z,5.93
2023-04-23T12:44:51.737Z,5.93
2023-04-23T12:47:21.225Z,5.90
2023-04-23T12:49:49.571Z,5.60
2023-04-23T12:52:16.324Z,6.88
2023-04-23T12:54:44.722Z,5.70
2023-04-23T12:57:12.080Z,6.03
2023-04-23T12:59:38.607Z,5.35
2023-04-23T13:02:08.608Z,5.88
2023-04-23T13:04:35.929Z,5.70
2023-04-23T13:07:02.544Z,4.63
2023-04-23T13:09:29.140Z,4.85
2023-04-23T13:11:55.652Z,5.93
2023-04-23T13:14:22.170Z,5.72
2023-04-23T13:16:49.003Z,6.00
2023-04-23T13:19:17.274Z,7.00
2023-04-23T13:21:44.175Z,7.50
2023-04-23T13:24:10.922Z,8.45
2023-04-23T13:26:37.521Z,8.35
2023-04-23T13:29:03.987Z,8.30
2023-04-23T13:31:31.345Z,8.18
2023-04-23T13:33:58.067Z,8.48
2023-04-23T13:36:24.710Z,8.45
2023-04-23T13:38:51.228Z,9.18
2023-04-23T13:41:17.686Z,9.05
2023-04-23T13:43:44.139Z,10.30
2023-04-23T13:46:10.698Z,9.02
2023-04-23T13:48:37.104Z,9.73
2023-04-23T13:51:06.478Z,8.90
2023-04-23T13:53:37.316Z,8.20
2023-04-23T13:56:03.719Z,9.95
2023-04-23T13:58:30.203Z,10.35
2023-04-23T14:00:56.738Z,10.50
2023-04-23T14:03:23.473Z,10.30
2023-04-23T14:05:49.914Z,9.95
2023-04-23T14:08:16.353Z,10.40
2023-04-23T14:10:43.835Z,9.60
2023-04-23T14:13:10.424Z,9.85
2023-04-23T14:15:36.988Z,9.57
2023-04-23T14:18:03.547Z,9.00
2023-04-23T14:20:30.087Z,9.95
2023-04-23T14:22:57.527Z,8.52
2023-04-23T14:25:25.200Z,7.75
2023-04-23T14:27:55.503Z,8.88
2023-04-23T14:30:21.947Z,8.43
2023-04-23T14:32:49.936Z,8.57
2023-04-23T14:35:22.701Z,8.35
2023-04-23T14:37:55.798Z,9.15
2023-04-23T14:40:22.176Z,8.95
2023-04-23T14:42:49.042Z,8.15
2023-04-23T14:45:16.333Z,8.45
2023-04-23T14:47:47.766Z,8.70
2023-04-23T14:50:15.167Z,8.38
2023-04-23T14:52:43.760Z,8.88
2023-04-23T14:55:11.175Z,8.52
2023-04-23T14:57:37.733Z,8.60
2023-04-23T15:00:04.764Z,8.52
2023-04-23T15:02:33.891Z,8.05
2023-04-23T15:05:00.490Z,8.20
2023-04-23T15:07:27.183Z,8.60
2023-04-23T15:09:53.636Z,7.40
2023-04-23T15:12:33.932Z,8.07
2023-04-23T15:15:03.397Z,7.57
2023-04-23T15:17:29.832Z,8.02
2023-04-23T15:19:59.854Z,8.40
2023-04-23T15:22:26.622Z,8.55
2023-04-23T15:24:53.023Z,9.77
2023-04-23T15:27:19.472Z,9.35
2023-04-23T15:29:49.536Z,10.27
2023-04-23T15:32:16.563Z,10.03
2023-04-23T15:34:42.939Z,9.75
2023-04-23T15:37:09.419Z,9.02
2023-04-23T15:39:35.824Z,9.95
2023-04-23T15:42:03.336Z,11.07
2023-04-23T15:44:29.775Z,10.77
2023-04-23T15:47:01.204Z,11.88
2023-04-23T15:49:27.572Z,10.60
2023-04-23T15:51:54.082Z,12.00
2023-04-23T15:54:20.497Z,13.70
2023-04-23T15:56:46.859Z,11.27
2023-04-23T15:59:13.645Z,12.05
2023-04-23T16:01:40.091Z,12.60
2023-04-23T16:04:11.237Z,11.90
2023-04-23T16:06:38.228Z,13.10
2023-04-23T16:09:08.076Z,12.85
2023-04-23T16:11:38.151Z,13.95
2023-04-23T16:14:05.219Z,12.80
2023-04-23T16:16:31.721Z,13.60
2023-04-23T16:18:58.128Z,13.02
2023-04-23T16:21:24.803Z,12.70
2023-04-23T16:23:51.297Z,12.88
2023-04-23T16:26:17.696Z,12.48
2023-04-23T16:28:45.796Z,13.40
2023-04-23T16:31:12.470Z,13.63
2023-04-23T16:33:40.408Z,15.15
2023-04-23T16:36:06.946Z,13.30
2023-04-23T16:38:36.527Z,14.60
2023-04-23T16:41:03.015Z,13.95
2023-04-23T16:43:29.456Z,13.82
2023-04-23T16:45:55.974Z,14.65
2023-04-23T16:48:22.418Z,14.50
2023-04-23T16:50:48.903Z,14.80
2023-04-23T16:53:15.305Z,17.10
2023-04-23T16:55:41.750Z,14.75
2023-04-23T16:58:09.928Z,14.10
2023-04-23T17:00:36.367Z,14.70
2023-04-23T17:03:02.894Z,15.43
2023-04-23T17:05:32.249Z,15.70
2023-04-23T17:07:59.522Z,16.30
2023-04-23T17:10:25.923Z,14.93
2023-04-23T17:12:56.618Z,15.73
2023-04-23T17:15:23.011Z,15.85
2023-04-23T17:17:49.446Z,16.25
2023-04-23T17:20:16.042Z,16.48
2023-04-23T17:22:42.423Z,16.00
2023-04-23T17:25:09.120Z,16.58
2023-04-23T17:27:35.647Z,15.48
2023-04-23T17:30:02.150Z,14.48
2023-04-23T17:32:28.582Z,17.45
2023-04-23T17:35:06.437Z,16.30
2023-04-23T17:37:36.321Z,15.40
2023-04-23T17:40:03.053Z,15.65
2023-04-23T17:42:29.543Z,16.05
2023-04-23T17:44:56.074Z,15.45
2023-04-23T17:47:22.567Z,16.42
2023-04-23T17:49:48.950Z,17.10
2023-04-23T17:52:16.086Z,16.23
2023-04-23T17:54:42.766Z,15.77
2023-04-23T17:57:09.841Z,15.32
2023-04-23T17:59:36.286Z,15.25
2023-04-23T18:02:06.199Z,15.70
2023-04-23T18:04:34.598Z,15.75
2023-04-23T18:07:01.054Z,16.90
2023-04-23T18:09:27.666Z,16.20
2023-04-23T18:11:55.230Z,18.17
2023-04-23T18:14:21.630Z,18.02
2023-04-23T18:16:48.057Z,14.77
2023-04-23T18:19:14.557Z,16.55
2023-04-23T18:21:43.698Z,17.88
2023-04-23T18:24:10.321Z,16.65
2023-04-23T18:26:36.716Z,15.68
2023-04-23T18:29:03.132Z,19.35
2023-04-23T18:31:29.798Z,17.27
2023-04-23T18:34:01.877Z,16.98
2023-04-23T18:36:32.392Z,17.33
2023-04-23T18:38:58.998Z,19.05
2023-04-23T18:41:25.604Z,17.65
2023-04-23T18:43:52.397Z,16.38
2023-04-23T18:46:18.907Z,16.80
2023-04-23T18:48:46.771Z,16.50
2023-04-23T18:51:14.488Z,16.23
2023-04-23T18:53:40.939Z,16.75
2023-04-23T18:56:10.330Z,15.18
2023-04-23T18:58:36.741Z,15.00
2023-04-23T19:01:03.464Z,14.63
2023-04-23T19:03:30.038Z,14.13
2023-04-23T19:05:56.998Z,13.82
2023-04-23T19:08:28.401Z,13.57
2023-04-23T19:10:55.477Z,13.13
2023-04-23T19:13:22.948Z,13.90
2023-04-23T19:15:52.756Z,13.13
2023-04-23T19:18:19.686Z,13.93
2023-04-23T19:20:46.272Z,15.30
2023-04-23T19:23:12.677Z,14.80
2023-04-23T19:25:39.386Z,13.55
2023-04-23T19:28:05.835Z,13.55
2023-04-23T19:30:32.389Z,13.95
2023-04-23T19:32:58.902Z,14.35
2023-04-23T19:35:25.688Z,14.10
2023-04-23T19:37:52.138Z,15.60
2023-04-23T19:40:18.557Z,14.45
2023-04-23T19:42:44.988Z,14.48
2023-04-23T19:45:11.438Z,14.82
2023-04-23T19:47:38.674Z,15.13
2023-04-23T19:50:06.644Z,14.23
2023-04-23T19:52:33.072Z,15.95
2023-04-23T19:54:59.693Z,17.85
2023-04-23T19:57:26.117Z,15.63
2023-04-23T19:59:52.658Z,15.93
2023-04-23T20:02:19.165Z,13.85
2023-04-23T20:04:45.821Z,14.80
2023-04-23T20:07:12.610Z,14.93
2023-04-23T20:09:40.114Z,14.63
2023-04-23T20:12:07.138Z,14.30
2023-04-23T20:14:33.567Z,13.38
2023-04-23T20:17:00.093Z,13.70
2023-04-23T20:19:26.730Z,16.25
2023-04-23T20:21:53.405Z,16.10
2023-04-23T20:24:23.147Z,17.60
2023-04-23T20:26:49.641Z,17.98
2023-04-23T20:29:16.064Z,16.10
2023-04-23T20:31:42.509Z,16.65
2023-04-23T20:34:09.107Z,15.98
2023-04-23T20:36:35.783Z,16.30
2023-04-23T20:39:05.384Z,16.15
2023-04-23T20:41:34.423Z,16.58
2023-04-23T20:44:02.018Z,16.80
2023-04-23T20:46:32.261Z,16.83
2023-04-23T20:49:00.783Z,17.00
2023-04-23T20:51:33.096Z,16.50
2023-04-23T20:53:59.616Z,15.40
2023-04-23T20:56:28.623Z,15.90
2023-04-23T20:58:55.071Z,15.95
2023-04-23T21:01:21.603Z,17.23
2023-04-23T21:03:48.862Z,15.90
2023-04-23T21:06:15.569Z,15.32
2023-04-23T21:08:42.772Z,16.50
2023-04-23T21:11:19.576Z,17.50
2023-04-23T21:13:46.561Z,19.27
2023-04-23T21:16:13.125Z,19.05
2023-04-23T21:18:39.942Z,17.83
2023-04-23T21:21:06.718Z,18.73
2023-04-23T21:23:33.425Z,17.95
2023-04-23T21:25:59.848Z,18.40
2023-04-23T21:28:26.545Z,17.98
2023-04-23T21:30:56.566Z,18.85
2023-04-23T21:33:24.166Z,20.07
2023-04-23T21:35:51.285Z,18.17
2023-04-23T21:38:17.925Z,16.05
2023-04-23T21:40:44.351Z,16.90
2023-04-23T21:43:11.581Z,16.38
2023-04-23T21:45:38.287Z,16.27
2023-04-23T21:48:05.138Z,16.35
2023-04-23T21:50:32.304Z,15.45
2023-04-23T21:52:59.519Z,16.95
2023-04-23T21:55:27.061Z,16.48
2023-04-23T21:57:54.888Z,16.15
2023-04-23T22:00:23.774Z,15.73
2023-04-23T22:02:55.040Z,15.82
2023-04-23T22:05:22.697Z,15.32
2023-04-23T22:07:49.825Z,15.60
2023-04-23T22:10:16.823Z,17.58
2023-04-23T22:12:43.622Z,17.85
2023-04-23T22:15:11.292Z,18.00
2023-04-23T22:17:38.845Z,16.27
2023-04-23T22:20:06.907Z,16.17
2023-04-23T22:22:36.571Z,17.67
2023-04-23T22:25:06.226Z,16.52
2023-04-23T22:27:34.753Z,16.60
2023-04-23T22:30:01.452Z,14.88
2023-04-23T22:32:30.853Z,15.68
2023-04-23T22:34:57.574Z,14.38
2023-04-23T22:37:24.265Z,14.52
2023-04-23T22:39:50.897Z,16.60
2023-04-23T22:42:17.452Z,16.00
2023-04-23T22:44:43.842Z,16.90
2023-04-23T22:47:10.605Z,17.23
2023-04-23T22:49:38.872Z,18.98
2023-04-23T22:52:05.629Z,18.13
2023-04-23T22:54:32.153Z,15.68
2023-04-23T22:56:58.672Z,15.40
2023-04-23T22:59:25.784Z,16.05
2023-04-23T23:01:52.221Z,16.50
2023-04-23T23:04:18.823Z,17.10
2023-04-23T23:06:46.347Z,16.25
2023-04-23T23:09:12.753Z,14.82
2023-04-23T23:11:39.166Z,14.35
2023-04-23T23:14:06.068Z,14.88
2023-04-23T23:16:32.606Z,15.02
2023-04-23T23:18:59.123Z,14.65
2023-04-23T23:21:25.678Z,16.30
2023-04-23T23:23:52.342Z,16.27
2023-04-23T23:26:19.942Z,15.40
2023-04-23T23:28:46.329Z,13.60
2023-04-23T23:31:15.608Z,15.63
2023-04-23T23:33:42.095Z,14.00
2023-04-23T23:36:08.698Z,15.57
2023-04-23T23:38:35.074Z,14.48
2023-04-23T23:41:01.529Z,15.05
2023-04-23T23:43:28.033Z,14.70
2023-04-23T23:45:54.408Z,15.60
2023-04-23T23:48:20.853Z,15.35
2023-04-23T23:50:47.301Z,15.18
2023-04-23T23:53:13.690Z,16.33
2023-04-23T23:55:40.762Z,15.38
2023-04-23T23:58:07.312Z,14.73
